sensor_id;sensor_type;location;lat;lon;timestamp;P1;durP1;ratioP1;P2;durP2;ratioP2
68910;SDS011;55953;51.650;-0.522;2023-01-30T00:01:29;11.60;;;4.50;;
68910;SDS011;55953;51.650;-0.522;2023-01-30T00:03:59;11.60;;;4.50;;
68910;SDS011;55953;51.650;-0.522;2023-01-30T00:06:27;11.10;;;4.60;;
68910;SDS011;55953;51.650;-0.522;2023-01-30T00:08:55;11.70;;;4.60;;
68910;SDS011;55953;51.650;-0.522;2023-01-30T00:11:23;11.50;;;3.90;;
68910;SDS011;55953;51.650;-0.522;2023-01-30T00:13:51;11.70;;;4.30;;
68910;SDS011;55953;51.650;-0.522;2023-01-30T00:16:19;10.00;;;4.50;;
68910;SDS011;55953;51.650;-0.522;2023-01-30T00:18:47;10.90;;;4.00;;
68910;SDS011;55953;51.650;-0.522;2023-01-30T00:21:15;10.30;;;4.40;;
68910;SDS011;55953;51.650;-0.522;2023-01-30T00:23:43;9.60;;;4.80;;
68910;SDS011;55953;51.650;-0.522;2023-01-30T00:26:12;12.10;;;4.00;;
68910;SDS011;55953;51.650;-0.522;2023-01-30T00:28:41;10.00;;;4.30;;
68910;SDS011;55953;51.650;-0.522;2023-01-30T00:31:10;10.30;;;3.80;;
68910;SDS011;55953;51.650;-0.522;2023-01-30T00:33:38;8.70;;;3.60;;
68910;SDS011;55953;51.650;-0.522;2023-01-30T00:36:06;8.20;;;3.20;;
68910;SDS011;55953;51.650;-0.522;2023-01-30T00:38:34;10.90;;;3.60;;
68910;SDS011;55953;51.650;-0.522;2023-01-30T00:41:03;9.60;;;3.50;;
68910;SDS011;55953;51.650;-0.522;2023-01-30T00:43:31;9.70;;;3.70;;
68910;SDS011;55953;51.650;-0.522;2023-01-30T00:46:24;9.30;;;3.40;;
68910;SDS011;55953;51.650;-0.522;2023-01-30T00:49:17;8.90;;;3.70;;
68910;SDS011;55953;51.650;-0.522;2023-01-30T00:51:45;13.30;;;4.20;;
68910;SDS011;55953;51.650;-0.522;2023-01-30T00:54:14;8.40;;;3.60;;
68910;SDS011;55953;51.650;-0.522;2023-01-30T00:56:41;11.20;;;3.80;;
68910;SDS011;55953;51.650;-0.522;2023-01-30T00:59:09;8.40;;;3.70;;
68910;SDS011;55953;51.650;-0.522;2023-01-30T01:01:37;10.70;;;4.00;;
68910;SDS011;55953;51.650;-0.522;2023-01-30T01:04:06;10.50;;;4.10;;
68910;SDS011;55953;51.650;-0.522;2023-01-30T01:06:36;8.60;;;3.90;;
68910;SDS011;55953;51.650;-0.522;2023-01-30T01:09:05;11.30;;;3.90;;
68910;SDS011;55953;51.650;-0.522;2023-01-30T01:11:35;12.60;;;3.90;;
68910;SDS011;55953;51.650;-0.522;2023-01-30T01:14:04;11.60;;;4.10;;
68910;SDS011;55953;51.650;-0.522;2023-01-30T01:16:33;12.00;;;4.00;;
68910;SDS011;55953;51.650;-0.522;2023-01-30T01:19:03;9.20;;;3.70;;
68910;SDS011;55953;51.650;-0.522;2023-01-30T01:21:31;9.00;;;4.00;;
68910;SDS011;55953;51.650;-0.522;2023-01-30T01:23:59;10.60;;;3.80;;
68910;SDS011;55953;51.650;-0.522;2023-01-30T01:26:27;9.00;;;3.90;;
68910;SDS011;55953;51.650;-0.522;2023-01-30T01:28:56;13.80;;;3.70;;
68910;SDS011;55953;51.650;-0.522;2023-01-30T01:31:25;12.70;;;4.10;;
68910;SDS011;55953;51.650;-0.522;2023-01-30T01:33:56;11.20;;;3.70;;
68910;SDS011;55953;51.650;-0.522;2023-01-30T01:36:25;9.40;;;3.90;;
68910;SDS011;55953;51.650;-0.522;2023-01-30T01:39:13;9.40;;;4.00;;
68910;SDS011;55953;51.650;-0.522;2023-01-30T01:41:41;12.10;;;4.10;;
68910;SDS011;55953;51.650;-0.522;2023-01-30T01:44:11;11.20;;;4.10;;
68910;SDS011;55953;51.650;-0.522;2023-01-30T01:46:51;10.80;;;3.80;;
68910;SDS011;55953;51.650;-0.522;2023-01-30T01:49:41;9.40;;;3.70;;
68910;SDS011;55953;51.650;-0.522;2023-01-30T01:52:12;10.30;;;3.90;;
68910;SDS011;55953;51.650;-0.522;2023-01-30T01:54:54;9.30;;;3.70;;
68910;SDS011;55953;51.650;-0.522;2023-01-30T01:57:39;6.50;;;3.10;;
68910;SDS011;55953;51.650;-0.522;2023-01-30T02:00:31;6.40;;;2.80;;
68910;SDS011;55953;51.650;-0.522;2023-01-30T02:03:03;9.50;;;3.20;;
68910;SDS011;55953;51.650;-0.522;2023-01-30T02:05:36;9.00;;;3.20;;
68910;SDS011;55953;51.650;-0.522;2023-01-30T02:08:17;11.40;;;3.60;;
68910;SDS011;55953;51.650;-0.522;2023-01-30T02:13:37;9.70;;;3.00;;
68910;SDS011;55953;51.650;-0.522;2023-01-30T02:16:07;11.30;;;3.20;;
68910;SDS011;55953;51.650;-0.522;2023-01-30T02:18:39;7.80;;;3.30;;
68910;SDS011;55953;51.650;-0.522;2023-01-30T02:26:52;10.50;;;2.50;;
68910;SDS011;55953;51.650;-0.522;2023-01-30T02:35:39;8.10;;;2.10;;
68910;SDS011;55953;51.650;-0.522;2023-01-30T02:44:10;5.50;;;1.60;;
68910;SDS011;55953;51.650;-0.522;2023-01-30T02:46:57;7.50;;;2.30;;
68910;SDS011;55953;51.650;-0.522;2023-01-30T02:49:35;7.20;;;1.90;;
68910;SDS011;55953;51.650;-0.522;2023-01-30T02:52:10;4.90;;;1.90;;
68910;SDS011;55953;51.650;-0.522;2023-01-30T02:54:40;8.00;;;2.10;;
68910;SDS011;55953;51.650;-0.522;2023-01-30T02:57:23;6.80;;;1.80;;
68910;SDS011;55953;51.650;-0.522;2023-01-30T02:59:57;4.30;;;1.30;;
68910;SDS011;55953;51.650;-0.522;2023-01-30T03:11:29;6.80;;;1.90;;
68910;SDS011;55953;51.650;-0.522;2023-01-30T03:14:42;6.80;;;1.80;;
68910;SDS011;55953;51.650;-0.522;2023-01-30T03:17:17;5.80;;;1.50;;
68910;SDS011;55953;51.650;-0.522;2023-01-30T03:19:52;3.50;;;1.40;;
68910;SDS011;55953;51.650;-0.522;2023-01-30T03:22:21;7.10;;;1.80;;
68910;SDS011;55953;51.650;-0.522;2023-01-30T03:24:51;7.60;;;1.70;;
68910;SDS011;55953;51.650;-0.522;2023-01-30T03:27:21;8.20;;;1.80;;
68910;SDS011;55953;51.650;-0.522;2023-01-30T03:29:49;7.10;;;2.10;;
68910;SDS011;55953;51.650;-0.522;2023-01-30T03:32:17;6.70;;;1.70;;
68910;SDS011;55953;51.650;-0.522;2023-01-30T03:34:45;5.60;;;2.00;;
68910;SDS011;55953;51.650;-0.522;2023-01-30T03:37:13;5.90;;;2.00;;
68910;SDS011;55953;51.650;-0.522;2023-01-30T03:39:41;3.60;;;1.60;;
68910;SDS011;55953;51.650;-0.522;2023-01-30T03:42:09;4.80;;;1.60;;
68910;SDS011;55953;51.650;-0.522;2023-01-30T03:44:37;6.40;;;1.60;;
68910;SDS011;55953;51.650;-0.522;2023-01-30T03:47:07;3.90;;;1.70;;
68910;SDS011;55953;51.650;-0.522;2023-01-30T03:49:35;7.30;;;1.80;;
68910;SDS011;55953;51.650;-0.522;2023-01-30T03:52:03;6.20;;;2.00;;
68910;SDS011;55953;51.650;-0.522;2023-01-30T03:54:31;5.20;;;1.70;;
68910;SDS011;55953;51.650;-0.522;2023-01-30T03:56:59;4.90;;;1.60;;
68910;SDS011;55953;51.650;-0.522;2023-01-30T03:59:27;4.90;;;1.60;;
68910;SDS011;55953;51.650;-0.522;2023-01-30T04:02:01;6.20;;;1.90;;
68910;SDS011;55953;51.650;-0.522;2023-01-30T04:04:29;4.80;;;1.80;;
68910;SDS011;55953;51.650;-0.522;2023-01-30T04:06:57;5.40;;;1.90;;
68910;SDS011;55953;51.650;-0.522;2023-01-30T04:09:26;5.90;;;2.00;;
68910;SDS011;55953;51.650;-0.522;2023-01-30T04:11:54;5.90;;;1.90;;
68910;SDS011;55953;51.650;-0.522;2023-01-30T04:14:22;6.70;;;1.70;;
68910;SDS011;55953;51.650;-0.522;2023-01-30T04:17:13;7.30;;;2.00;;
68910;SDS011;55953;51.650;-0.522;2023-01-30T04:20:07;6.90;;;2.10;;
68910;SDS011;55953;51.650;-0.522;2023-01-30T04:22:36;4.90;;;1.80;;
68910;SDS011;55953;51.650;-0.522;2023-01-30T04:25:04;5.00;;;1.60;;
68910;SDS011;55953;51.650;-0.522;2023-01-30T04:27:32;7.70;;;1.70;;
68910;SDS011;55953;51.650;-0.522;2023-01-30T04:30:10;6.70;;;2.00;;
68910;SDS011;55953;51.650;-0.522;2023-01-30T04:32:39;2.60;;;1.20;;
68910;SDS011;55953;51.650;-0.522;2023-01-30T04:35:08;8.90;;;2.10;;
68910;SDS011;55953;51.650;-0.522;2023-01-30T04:37:36;6.50;;;1.80;;
68910;SDS011;55953;51.650;-0.522;2023-01-30T04:40:05;5.60;;;1.70;;
68910;SDS011;55953;51.650;-0.522;2023-01-30T04:42:34;5.10;;;1.60;;
68910;SDS011;55953;51.650;-0.522;2023-01-30T04:45:22;6.60;;;2.00;;
68910;SDS011;55953;51.650;-0.522;2023-01-30T04:47:50;5.40;;;1.80;;
68910;SDS011;55953;51.650;-0.522;2023-01-30T04:50:18;4.30;;;1.70;;
68910;SDS011;55953;51.650;-0.522;2023-01-30T04:52:46;5.60;;;1.80;;
68910;SDS011;55953;51.650;-0.522;2023-01-30T04:55:14;5.40;;;1.60;;
68910;SDS011;55953;51.650;-0.522;2023-01-30T04:57:42;4.40;;;2.20;;
68910;SDS011;55953;51.650;-0.522;2023-01-30T05:00:10;5.10;;;1.70;;
68910;SDS011;55953;51.650;-0.522;2023-01-30T05:02:42;5.90;;;1.70;;
68910;SDS011;55953;51.650;-0.522;2023-01-30T05:05:10;10.20;;;2.20;;
68910;SDS011;55953;51.650;-0.522;2023-01-30T05:07:38;4.10;;;1.60;;
68910;SDS011;55953;51.650;-0.522;2023-01-30T05:10:06;7.00;;;2.00;;
68910;SDS011;55953;51.650;-0.522;2023-01-30T05:12:34;7.20;;;2.00;;
68910;SDS011;55953;51.650;-0.522;2023-01-30T05:15:02;4.80;;;1.80;;
68910;SDS011;55953;51.650;-0.522;2023-01-30T05:17:32;5.60;;;1.60;;
68910;SDS011;55953;51.650;-0.522;2023-01-30T05:20:00;6.00;;;1.70;;
68910;SDS011;55953;51.650;-0.522;2023-01-30T05:22:28;7.70;;;1.90;;
68910;SDS011;55953;51.650;-0.522;2023-01-30T05:24:56;8.40;;;1.70;;
68910;SDS011;55953;51.650;-0.522;2023-01-30T05:27:24;6.30;;;1.80;;
68910;SDS011;55953;51.650;-0.522;2023-01-30T05:29:52;8.00;;;1.90;;
68910;SDS011;55953;51.650;-0.522;2023-01-30T05:32:20;6.30;;;1.40;;
68910;SDS011;55953;51.650;-0.522;2023-01-30T05:34:48;6.40;;;1.50;;
68910;SDS011;55953;51.650;-0.522;2023-01-30T05:37:16;5.40;;;1.80;;
68910;SDS011;55953;51.650;-0.522;2023-01-30T05:39:44;4.80;;;1.50;;
68910;SDS011;55953;51.650;-0.522;2023-01-30T05:42:13;6.50;;;2.40;;
68910;SDS011;55953;51.650;-0.522;2023-01-30T05:44:41;5.30;;;1.90;;
68910;SDS011;55953;51.650;-0.522;2023-01-30T05:47:09;6.20;;;1.80;;
68910;SDS011;55953;51.650;-0.522;2023-01-30T05:49:37;3.90;;;1.80;;
68910;SDS011;55953;51.650;-0.522;2023-01-30T05:52:05;7.90;;;1.90;;
68910;SDS011;55953;51.650;-0.522;2023-01-30T05:54:33;7.00;;;2.00;;
68910;SDS011;55953;51.650;-0.522;2023-01-30T05:57:02;7.20;;;2.00;;
68910;SDS011;55953;51.650;-0.522;2023-01-30T05:59:30;6.50;;;2.20;;
68910;SDS011;55953;51.650;-0.522;2023-01-30T06:01:58;7.10;;;2.00;;
68910;SDS011;55953;51.650;-0.522;2023-01-30T06:04:26;8.60;;;2.10;;
68910;SDS011;55953;51.650;-0.522;2023-01-30T06:06:54;8.80;;;2.00;;
68910;SDS011;55953;51.650;-0.522;2023-01-30T06:09:21;9.70;;;2.20;;
68910;SDS011;55953;51.650;-0.522;2023-01-30T06:11:49;9.40;;;2.40;;
68910;SDS011;55953;51.650;-0.522;2023-01-30T06:14:19;8.00;;;2.60;;
68910;SDS011;55953;51.650;-0.522;2023-01-30T06:16:47;7.20;;;2.00;;
68910;SDS011;55953;51.650;-0.522;2023-01-30T06:19:15;8.40;;;2.20;;
68910;SDS011;55953;51.650;-0.522;2023-01-30T06:21:43;7.70;;;2.50;;
68910;SDS011;55953;51.650;-0.522;2023-01-30T06:24:11;6.00;;;1.80;;
68910;SDS011;55953;51.650;-0.522;2023-01-30T06:26:39;6.40;;;2.30;;
68910;SDS011;55953;51.650;-0.522;2023-01-30T06:29:07;6.90;;;1.70;;
68910;SDS011;55953;51.650;-0.522;2023-01-30T06:31:35;8.00;;;1.40;;
68910;SDS011;55953;51.650;-0.522;2023-01-30T06:34:03;8.50;;;1.60;;
68910;SDS011;55953;51.650;-0.522;2023-01-30T06:36:31;8.40;;;1.60;;
68910;SDS011;55953;51.650;-0.522;2023-01-30T06:38:59;9.90;;;1.80;;
68910;SDS011;55953;51.650;-0.522;2023-01-30T06:41:27;6.50;;;1.50;;
68910;SDS011;55953;51.650;-0.522;2023-01-30T06:43:55;9.00;;;2.20;;
68910;SDS011;55953;51.650;-0.522;2023-01-30T06:46:22;6.30;;;1.10;;
68910;SDS011;55953;51.650;-0.522;2023-01-30T06:48:50;7.50;;;1.70;;
68910;SDS011;55953;51.650;-0.522;2023-01-30T06:51:18;9.20;;;1.70;;
68910;SDS011;55953;51.650;-0.522;2023-01-30T06:53:46;7.40;;;1.50;;
68910;SDS011;55953;51.650;-0.522;2023-01-30T06:56:14;5.70;;;1.20;;
68910;SDS011;55953;51.650;-0.522;2023-01-30T06:58:42;6.30;;;1.70;;
68910;SDS011;55953;51.650;-0.522;2023-01-30T07:01:10;8.10;;;1.20;;
68910;SDS011;55953;51.650;-0.522;2023-01-30T07:03:38;9.00;;;1.30;;
68910;SDS011;55953;51.650;-0.522;2023-01-30T07:06:13;5.90;;;1.10;;
68910;SDS011;55953;51.650;-0.522;2023-01-30T07:08:41;7.00;;;1.10;;
68910;SDS011;55953;51.650;-0.522;2023-01-30T07:11:10;8.80;;;1.50;;
68910;SDS011;55953;51.650;-0.522;2023-01-30T07:13:38;5.60;;;1.10;;
68910;SDS011;55953;51.650;-0.522;2023-01-30T07:16:06;6.80;;;1.70;;
68910;SDS011;55953;51.650;-0.522;2023-01-30T07:18:34;6.30;;;1.10;;
68910;SDS011;55953;51.650;-0.522;2023-01-30T07:21:02;6.10;;;1.40;;
68910;SDS011;55953;51.650;-0.522;2023-01-30T07:23:32;7.80;;;1.20;;
68910;SDS011;55953;51.650;-0.522;2023-01-30T07:26:02;9.40;;;1.50;;
68910;SDS011;55953;51.650;-0.522;2023-01-30T07:28:31;7.70;;;1.20;;
68910;SDS011;55953;51.650;-0.522;2023-01-30T07:31:00;6.00;;;1.00;;
68910;SDS011;55953;51.650;-0.522;2023-01-30T07:33:28;9.30;;;1.30;;
68910;SDS011;55953;51.650;-0.522;2023-01-30T07:35:56;7.90;;;1.80;;
68910;SDS011;55953;51.650;-0.522;2023-01-30T07:38:24;8.20;;;1.30;;
68910;SDS011;55953;51.650;-0.522;2023-01-30T07:40:52;5.10;;;1.10;;
68910;SDS011;55953;51.650;-0.522;2023-01-30T07:43:20;7.70;;;1.40;;
68910;SDS011;55953;51.650;-0.522;2023-01-30T07:45:48;6.40;;;1.10;;
68910;SDS011;55953;51.650;-0.522;2023-01-30T07:48:18;9.40;;;1.30;;
68910;SDS011;55953;51.650;-0.522;2023-01-30T07:50:46;6.40;;;1.50;;
68910;SDS011;55953;51.650;-0.522;2023-01-30T07:53:15;5.30;;;1.40;;
68910;SDS011;55953;51.650;-0.522;2023-01-30T07:55:45;7.20;;;1.20;;
68910;SDS011;55953;51.650;-0.522;2023-01-30T07:58:14;7.50;;;1.30;;
68910;SDS011;55953;51.650;-0.522;2023-01-30T08:00:42;6.60;;;1.60;;
68910;SDS011;55953;51.650;-0.522;2023-01-30T08:03:12;12.00;;;1.90;;
68910;SDS011;55953;51.650;-0.522;2023-01-30T08:05:42;6.90;;;1.50;;
68910;SDS011;55953;51.650;-0.522;2023-01-30T08:08:13;4.80;;;1.90;;
68910;SDS011;55953;51.650;-0.522;2023-01-30T08:10:41;6.30;;;1.40;;
68910;SDS011;55953;51.650;-0.522;2023-01-30T08:13:09;11.00;;;1.70;;
68910;SDS011;55953;51.650;-0.522;2023-01-30T08:15:37;5.70;;;1.70;;
68910;SDS011;55953;51.650;-0.522;2023-01-30T08:18:05;4.00;;;1.00;;
68910;SDS011;55953;51.650;-0.522;2023-01-30T08:20:34;8.00;;;1.60;;
68910;SDS011;55953;51.650;-0.522;2023-01-30T08:23:03;6.00;;;1.30;;
68910;SDS011;55953;51.650;-0.522;2023-01-30T08:25:31;10.30;;;1.80;;
68910;SDS011;55953;51.650;-0.522;2023-01-30T08:27:59;6.90;;;1.40;;
68910;SDS011;55953;51.650;-0.522;2023-01-30T08:30:28;9.40;;;2.00;;
68910;SDS011;55953;51.650;-0.522;2023-01-30T08:32:57;7.00;;;1.60;;
68910;SDS011;55953;51.650;-0.522;2023-01-30T08:35:25;11.80;;;1.90;;
68910;SDS011;55953;51.650;-0.522;2023-01-30T08:37:53;5.90;;;1.30;;
68910;SDS011;55953;51.650;-0.522;2023-01-30T08:40:21;10.60;;;1.70;;
68910;SDS011;55953;51.650;-0.522;2023-01-30T08:42:49;8.40;;;1.70;;
68910;SDS011;55953;51.650;-0.522;2023-01-30T08:45:16;7.20;;;1.50;;
68910;SDS011;55953;51.650;-0.522;2023-01-30T08:47:44;7.30;;;1.80;;
68910;SDS011;55953;51.650;-0.522;2023-01-30T08:50:12;9.00;;;1.80;;
68910;SDS011;55953;51.650;-0.522;2023-01-30T08:52:40;8.10;;;1.50;;
68910;SDS011;55953;51.650;-0.522;2023-01-30T08:55:08;9.30;;;1.70;;
68910;SDS011;55953;51.650;-0.522;2023-01-30T08:57:36;8.90;;;1.20;;
68910;SDS011;55953;51.650;-0.522;2023-01-30T09:00:05;11.80;;;1.90;;
68910;SDS011;55953;51.650;-0.522;2023-01-30T09:02:34;11.50;;;2.00;;
68910;SDS011;55953;51.650;-0.522;2023-01-30T09:05:03;10.00;;;1.70;;
68910;SDS011;55953;51.650;-0.522;2023-01-30T09:07:32;7.40;;;1.30;;
68910;SDS011;55953;51.650;-0.522;2023-01-30T09:10:00;10.30;;;1.90;;
68910;SDS011;55953;51.650;-0.522;2023-01-30T09:12:28;10.60;;;1.70;;
68910;SDS011;55953;51.650;-0.522;2023-01-30T09:14:56;11.90;;;2.00;;
68910;SDS011;55953;51.650;-0.522;2023-01-30T09:17:25;9.20;;;1.40;;
68910;SDS011;55953;51.650;-0.522;2023-01-30T09:19:53;9.10;;;1.80;;
68910;SDS011;55953;51.650;-0.522;2023-01-30T09:22:21;7.50;;;1.80;;
68910;SDS011;55953;51.650;-0.522;2023-01-30T09:24:49;8.50;;;1.90;;
68910;SDS011;55953;51.650;-0.522;2023-01-30T09:27:16;8.30;;;1.80;;
68910;SDS011;55953;51.650;-0.522;2023-01-30T09:29:44;10.50;;;1.80;;
68910;SDS011;55953;51.650;-0.522;2023-01-30T09:32:12;9.80;;;1.80;;
68910;SDS011;55953;51.650;-0.522;2023-01-30T09:34:40;15.00;;;2.30;;
68910;SDS011;55953;51.650;-0.522;2023-01-30T09:37:08;11.60;;;1.60;;
68910;SDS011;55953;51.650;-0.522;2023-01-30T09:39:36;12.80;;;2.00;;
68910;SDS011;55953;51.650;-0.522;2023-01-30T09:47:48;10.00;;;1.60;;
68910;SDS011;55953;51.650;-0.522;2023-01-30T09:53:51;6.80;;;1.50;;
68910;SDS011;55953;51.650;-0.522;2023-01-30T09:56:22;7.00;;;1.70;;
68910;SDS011;55953;51.650;-0.522;2023-01-30T09:58:53;8.80;;;1.80;;
68910;SDS011;55953;51.650;-0.522;2023-01-30T10:01:36;9.60;;;1.70;;
68910;SDS011;55953;51.650;-0.522;2023-01-30T10:04:33;8.00;;;2.00;;
68910;SDS011;55953;51.650;-0.522;2023-01-30T10:07:17;11.80;;;1.80;;
68910;SDS011;55953;51.650;-0.522;2023-01-30T10:10:33;11.40;;;2.10;;
68910;SDS011;55953;51.650;-0.522;2023-01-30T10:22:01;12.50;;;1.50;;
68910;SDS011;55953;51.650;-0.522;2023-01-30T10:25:05;7.80;;;2.20;;
68910;SDS011;55953;51.650;-0.522;2023-01-30T10:27:47;5.20;;;1.30;;
68910;SDS011;55953;51.650;-0.522;2023-01-30T10:30:19;7.90;;;1.40;;
68910;SDS011;55953;51.650;-0.522;2023-01-30T10:32:57;9.20;;;1.80;;
68910;SDS011;55953;51.650;-0.522;2023-01-30T10:35:38;11.10;;;1.50;;
68910;SDS011;55953;51.650;-0.522;2023-01-30T10:41:04;7.00;;;1.20;;
68910;SDS011;55953;51.650;-0.522;2023-01-30T10:43:44;10.00;;;1.60;;
68910;SDS011;55953;51.650;-0.522;2023-01-30T10:49:18;9.10;;;1.50;;
68910;SDS011;55953;51.650;-0.522;2023-01-30T11:00:37;9.00;;;1.60;;
68910;SDS011;55953;51.650;-0.522;2023-01-30T11:03:35;11.40;;;1.50;;
68910;SDS011;55953;51.650;-0.522;2023-01-30T11:06:14;8.70;;;1.80;;
68910;SDS011;55953;51.650;-0.522;2023-01-30T11:08:45;9.60;;;1.20;;
68910;SDS011;55953;51.650;-0.522;2023-01-30T11:11:32;7.20;;;1.50;;
68910;SDS011;55953;51.650;-0.522;2023-01-30T11:14:10;8.00;;;1.60;;
68910;SDS011;55953;51.650;-0.522;2023-01-30T11:16:45;10.50;;;1.40;;
68910;SDS011;55953;51.650;-0.522;2023-01-30T11:19:17;6.90;;;1.20;;
68910;SDS011;55953;51.650;-0.522;2023-01-30T11:21:54;6.80;;;1.30;;
68910;SDS011;55953;51.650;-0.522;2023-01-30T11:24:38;8.90;;;1.30;;
68910;SDS011;55953;51.650;-0.522;2023-01-30T11:27:14;11.30;;;2.00;;
68910;SDS011;55953;51.650;-0.522;2023-01-30T11:29:44;9.70;;;1.60;;
68910;SDS011;55953;51.650;-0.522;2023-01-30T11:32:25;10.10;;;1.70;;
68910;SDS011;55953;51.650;-0.522;2023-01-30T11:37:40;11.40;;;1.60;;
68910;SDS011;55953;51.650;-0.522;2023-01-30T11:40:24;9.10;;;1.60;;
68910;SDS011;55953;51.650;-0.522;2023-01-30T11:43:01;7.60;;;1.60;;
68910;SDS011;55953;51.650;-0.522;2023-01-30T11:45:40;8.90;;;1.40;;
68910;SDS011;55953;51.650;-0.522;2023-01-30T11:48:16;7.30;;;1.70;;
68910;SDS011;55953;51.650;-0.522;2023-01-30T11:51:08;9.80;;;2.20;;
68910;SDS011;55953;51.650;-0.522;2023-01-30T11:53:44;9.60;;;1.40;;
68910;SDS011;55953;51.650;-0.522;2023-01-30T11:56:35;7.20;;;1.80;;
68910;SDS011;55953;51.650;-0.522;2023-01-30T11:59:07;6.80;;;1.50;;
68910;SDS011;55953;51.650;-0.522;2023-01-30T12:01:49;9.90;;;1.60;;
68910;SDS011;55953;51.650;-0.522;2023-01-30T12:04:18;7.60;;;1.80;;
68910;SDS011;55953;51.650;-0.522;2023-01-30T12:07:04;5.40;;;1.60;;
68910;SDS011;55953;51.650;-0.522;2023-01-30T12:09:43;10.20;;;1.90;;
68910;SDS011;55953;51.650;-0.522;2023-01-30T12:12:28;9.40;;;1.40;;
68910;SDS011;55953;51.650;-0.522;2023-01-30T12:15:23;11.70;;;2.00;;
68910;SDS011;55953;51.650;-0.522;2023-01-30T12:20:51;7.90;;;1.50;;
68910;SDS011;55953;51.650;-0.522;2023-01-30T12:26:20;8.30;;;1.60;;
68910;SDS011;55953;51.650;-0.522;2023-01-30T12:32:14;8.30;;;1.70;;
68910;SDS011;55953;51.650;-0.522;2023-01-30T12:34:45;13.00;;;2.40;;
68910;SDS011;55953;51.650;-0.522;2023-01-30T13:00:08;11.30;;;1.50;;
68910;SDS011;55953;51.650;-0.522;2023-01-30T13:03:17;7.10;;;1.60;;
68910;SDS011;55953;51.650;-0.522;2023-01-30T13:14:59;8.40;;;1.70;;
68910;SDS011;55953;51.650;-0.522;2023-01-30T13:17:49;8.10;;;1.50;;
68910;SDS011;55953;51.650;-0.522;2023-01-30T13:20:40;11.20;;;1.70;;
68910;SDS011;55953;51.650;-0.522;2023-01-30T13:26:11;12.70;;;1.70;;
68910;SDS011;55953;51.650;-0.522;2023-01-30T13:28:45;11.10;;;1.50;;
68910;SDS011;55953;51.650;-0.522;2023-01-30T13:31:19;10.40;;;1.60;;
68910;SDS011;55953;51.650;-0.522;2023-01-30T13:34:05;13.60;;;1.90;;
68910;SDS011;55953;51.650;-0.522;2023-01-30T13:36:50;9.60;;;2.00;;
68910;SDS011;55953;51.650;-0.522;2023-01-30T13:39:32;7.50;;;1.40;;
68910;SDS011;55953;51.650;-0.522;2023-01-30T13:42:49;10.00;;;1.60;;
68910;SDS011;55953;51.650;-0.522;2023-01-30T13:45:42;11.90;;;1.70;;
68910;SDS011;55953;51.650;-0.522;2023-01-30T13:48:28;12.90;;;2.10;;
68910;SDS011;55953;51.650;-0.522;2023-01-30T14:09:41;14.50;;;2.60;;
68910;SDS011;55953;51.650;-0.522;2023-01-30T14:12:24;10.40;;;1.40;;
68910;SDS011;55953;51.650;-0.522;2023-01-30T14:18:04;8.30;;;1.70;;
68910;SDS011;55953;51.650;-0.522;2023-01-30T14:20:36;10.00;;;2.00;;
68910;SDS011;55953;51.650;-0.522;2023-01-30T14:23:33;9.30;;;1.90;;
68910;SDS011;55953;51.650;-0.522;2023-01-30T14:26:02;10.70;;;1.90;;
68910;SDS011;55953;51.650;-0.522;2023-01-30T14:30:59;11.00;;;1.70;;
68910;SDS011;55953;51.650;-0.522;2023-01-30T14:33:34;9.70;;;2.00;;
68910;SDS011;55953;51.650;-0.522;2023-01-30T14:38:42;10.80;;;2.20;;
68910;SDS011;55953;51.650;-0.522;2023-01-30T14:41:27;6.60;;;1.90;;
68910;SDS011;55953;51.650;-0.522;2023-01-30T14:43:55;11.80;;;1.80;;
68910;SDS011;55953;51.650;-0.522;2023-01-30T14:49:22;12.30;;;2.30;;
68910;SDS011;55953;51.650;-0.522;2023-01-30T14:51:53;11.90;;;2.30;;
68910;SDS011;55953;51.650;-0.522;2023-01-30T14:54:28;7.70;;;1.40;;
68910;SDS011;55953;51.650;-0.522;2023-01-30T14:57:21;11.30;;;2.20;;
68910;SDS011;55953;51.650;-0.522;2023-01-30T14:59:56;11.70;;;1.90;;
68910;SDS011;55953;51.650;-0.522;2023-01-30T15:05:47;11.10;;;2.30;;
68910;SDS011;55953;51.650;-0.522;2023-01-30T15:08:19;15.70;;;2.40;;
68910;SDS011;55953;51.650;-0.522;2023-01-30T15:11:07;12.80;;;2.40;;
68910;SDS011;55953;51.650;-0.522;2023-01-30T15:13:45;7.40;;;1.60;;
68910;SDS011;55953;51.650;-0.522;2023-01-30T15:19:34;10.00;;;1.80;;
68910;SDS011;55953;51.650;-0.522;2023-01-30T15:25:20;12.90;;;2.20;;
68910;SDS011;55953;51.650;-0.522;2023-01-30T15:28:09;10.00;;;1.90;;
68910;SDS011;55953;51.650;-0.522;2023-01-30T15:30:51;11.20;;;2.10;;
68910;SDS011;55953;51.650;-0.522;2023-01-30T15:33:43;14.50;;;3.50;;
68910;SDS011;55953;51.650;-0.522;2023-01-30T15:36:23;9.80;;;3.00;;
68910;SDS011;55953;51.650;-0.522;2023-01-30T15:39:00;12.80;;;2.80;;
68910;SDS011;55953;51.650;-0.522;2023-01-30T15:41:36;10.90;;;2.80;;
68910;SDS011;55953;51.650;-0.522;2023-01-30T15:47:35;11.80;;;2.00;;
68910;SDS011;55953;51.650;-0.522;2023-01-30T15:50:16;10.20;;;2.10;;
68910;SDS011;55953;51.650;-0.522;2023-01-30T15:52:46;13.50;;;2.30;;
68910;SDS011;55953;51.650;-0.522;2023-01-30T15:55:28;10.10;;;2.10;;
68910;SDS011;55953;51.650;-0.522;2023-01-30T15:58:04;12.70;;;2.20;;
68910;SDS011;55953;51.650;-0.522;2023-01-30T16:00:43;8.20;;;2.30;;
68910;SDS011;55953;51.650;-0.522;2023-01-30T16:03:20;11.40;;;2.10;;
68910;SDS011;55953;51.650;-0.522;2023-01-30T16:05:55;10.30;;;2.10;;
68910;SDS011;55953;51.650;-0.522;2023-01-30T16:08:34;11.20;;;2.80;;
68910;SDS011;55953;51.650;-0.522;2023-01-30T16:11:03;9.20;;;2.40;;
68910;SDS011;55953;51.650;-0.522;2023-01-30T16:13:31;12.10;;;2.80;;
68910;SDS011;55953;51.650;-0.522;2023-01-30T16:16:06;10.60;;;2.00;;
68910;SDS011;55953;51.650;-0.522;2023-01-30T16:18:58;8.30;;;2.50;;
68910;SDS011;55953;51.650;-0.522;2023-01-30T16:21:37;12.40;;;2.80;;
68910;SDS011;55953;51.650;-0.522;2023-01-30T16:26:51;13.10;;;2.60;;
68910;SDS011;55953;51.650;-0.522;2023-01-30T16:29:25;13.10;;;2.20;;
68910;SDS011;55953;51.650;-0.522;2023-01-30T16:31:55;16.80;;;2.90;;
68910;SDS011;55953;51.650;-0.522;2023-01-30T16:37:25;16.50;;;3.50;;
68910;SDS011;55953;51.650;-0.522;2023-01-30T16:42:37;12.00;;;3.30;;
68910;SDS011;55953;51.650;-0.522;2023-01-30T16:47:39;10.60;;;3.10;;
68910;SDS011;55953;51.650;-0.522;2023-01-30T16:50:19;14.70;;;2.90;;
68910;SDS011;55953;51.650;-0.522;2023-01-30T16:52:53;13.80;;;2.50;;
68910;SDS011;55953;51.650;-0.522;2023-01-30T16:55:24;13.50;;;3.10;;
68910;SDS011;55953;51.650;-0.522;2023-01-30T16:57:55;12.90;;;3.50;;
68910;SDS011;55953;51.650;-0.522;2023-01-30T17:00:36;13.60;;;3.00;;
68910;SDS011;55953;51.650;-0.522;2023-01-30T17:03:23;14.10;;;3.20;;
68910;SDS011;55953;51.650;-0.522;2023-01-30T17:05:55;16.40;;;3.50;;
68910;SDS011;55953;51.650;-0.522;2023-01-30T17:11:34;12.30;;;3.10;;
68910;SDS011;55953;51.650;-0.522;2023-01-30T17:14:22;13.70;;;2.70;;
68910;SDS011;55953;51.650;-0.522;2023-01-30T17:17:06;14.10;;;3.20;;
68910;SDS011;55953;51.650;-0.522;2023-01-30T17:19:36;17.00;;;4.10;;
68910;SDS011;55953;51.650;-0.522;2023-01-30T17:22:07;14.80;;;4.10;;
68910;SDS011;55953;51.650;-0.522;2023-01-30T17:24:45;12.80;;;3.30;;
68910;SDS011;55953;51.650;-0.522;2023-01-30T17:27:14;13.90;;;2.70;;
68910;SDS011;55953;51.650;-0.522;2023-01-30T17:29:42;10.70;;;3.40;;
68910;SDS011;55953;51.650;-0.522;2023-01-30T17:32:14;14.00;;;4.30;;
68910;SDS011;55953;51.650;-0.522;2023-01-30T17:34:42;14.60;;;4.60;;
68910;SDS011;55953;51.650;-0.522;2023-01-30T17:37:14;14.50;;;4.70;;
68910;SDS011;55953;51.650;-0.522;2023-01-30T17:39:43;12.60;;;5.10;;
68910;SDS011;55953;51.650;-0.522;2023-01-30T17:42:13;12.70;;;4.30;;
68910;SDS011;55953;51.650;-0.522;2023-01-30T17:44:44;14.00;;;3.00;;
68910;SDS011;55953;51.650;-0.522;2023-01-30T17:47:12;8.80;;;2.80;;
68910;SDS011;55953;51.650;-0.522;2023-01-30T17:49:40;15.80;;;4.70;;
68910;SDS011;55953;51.650;-0.522;2023-01-30T17:52:10;12.00;;;4.90;;